createdAt,value
2022-10-26T00:01:15.708Z,99979.09
2022-10-26T00:03:44.841Z,99974.56
2022-10-26T00:06:18.565Z,99971.38
2022-10-26T00:08:46.634Z,99963.53
2022-10-26T00:11:15.108Z,99954.81
2022-10-26T00:13:43.825Z,99952.13
2022-10-26T00:16:14.587Z,99952.28
2022-10-26T00:18:42.984Z,99942.06
2022-10-26T00:21:11.298Z,99939.41
2022-10-26T00:23:39.104Z,99937.56
2022-10-26T00:26:07.617Z,99923.34
2022-10-26T00:28:35.550Z,99922.81
2022-10-26T00:31:05.504Z,99906.91
2022-10-26T00:33:33.221Z,99910.44
2022-10-26T00:36:00.893Z,99912.94
2022-10-26T00:38:28.428Z,99907.47
2022-10-26T00:43:28.836Z,99897.41
2022-10-26T00:45:58.867Z,99892.22
2022-10-26T00:48:34.485Z,99885.19
2022-10-26T00:51:09.557Z,99882.81
2022-10-26T00:53:37.405Z,99883.00
2022-10-26T00:56:05.419Z,99880.47
2022-10-26T00:58:34.662Z,99869.09
2022-10-26T01:01:02.697Z,99873.44
2022-10-26T01:03:32.034Z,99862.09
2022-10-26T01:05:59.736Z,99857.56
2022-10-26T01:08:28.689Z,99854.06
2022-10-26T01:11:01.173Z,99840.69
2022-10-26T01:13:33.370Z,99835.16
2022-10-26T01:16:08.123Z,99819.28
2022-10-26T01:18:48.204Z,99821.28
2022-10-26T01:21:50.837Z,99813.38
2022-10-26T01:24:36.350Z,99812.56
2022-10-26T01:27:25.075Z,99808.03
2022-10-26T01:30:12.561Z,99803.69
2022-10-26T01:32:55.651Z,99790.31
2022-10-26T01:35:33.558Z,99783.44
2022-10-26T01:38:11.388Z,99790.66
2022-10-26T01:41:20.440Z,99769.25
2022-10-26T01:44:01.329Z,99772.94
2022-10-26T01:46:33.626Z,99775.75
2022-10-26T01:49:08.098Z,99758.03
2022-10-26T01:51:36.374Z,99750.34
2022-10-26T01:54:03.941Z,99752.00
2022-10-26T01:56:37.322Z,99745.66
2022-10-26T01:59:30.511Z,99735.81
2022-10-26T02:02:20.808Z,99727.59
2022-10-26T02:05:08.884Z,99723.94
2022-10-26T02:07:39.143Z,99716.56
2022-10-26T02:10:06.618Z,99711.91
2022-10-26T02:12:49.415Z,99714.25
2022-10-26T02:15:44.727Z,99701.56
2022-10-26T02:18:34.543Z,99700.34
2022-10-26T02:21:15.158Z,99692.34
2022-10-26T02:23:46.191Z,99689.84
2022-10-26T02:26:18.116Z,99685.13
2022-10-26T02:28:49.777Z,99683.16
2022-10-26T02:31:19.655Z,99678.81
2022-10-26T02:33:50.542Z,99669.63
2022-10-26T02:36:32.097Z,99674.63
2022-10-26T02:39:01.528Z,99669.28
2022-10-26T02:41:30.868Z,99668.91
2022-10-26T02:44:13.081Z,99658.91
2022-10-26T02:46:41.377Z,99651.69
2022-10-26T02:49:08.994Z,99648.19
2022-10-26T02:51:44.834Z,99640.16
2022-10-26T02:54:28.880Z,99639.00
2022-10-26T02:57:07.862Z,99642.34
2022-10-26T02:59:38.374Z,99632.28
2022-10-26T03:02:06.143Z,99627.97
2022-10-26T03:04:35.329Z,99623.25
2022-10-26T03:07:03.112Z,99614.22
2022-10-26T03:09:30.606Z,99605.88
2022-10-26T03:11:58.134Z,99604.66
2022-10-26T03:14:25.742Z,99599.31
2022-10-26T03:16:53.286Z,99592.31
2022-10-26T03:19:20.780Z,99597.66
2022-10-26T03:21:48.397Z,99588.59
2022-10-26T03:24:15.852Z,99577.75
2022-10-26T03:26:43.409Z,99572.06
2022-10-26T03:29:10.944Z,99564.84
2022-10-26T03:31:38.493Z,99554.97
2022-10-26T03:34:06.012Z,99551.31
2022-10-26T03:36:34.148Z,99548.44
2022-10-26T03:39:01.716Z,99549.94
2022-10-26T03:41:29.278Z,99551.81
2022-10-26T03:43:56.718Z,99547.28
2022-10-26T03:46:24.202Z,99548.09
2022-10-26T03:48:51.752Z,99540.91
2022-10-26T03:51:19.312Z,99535.41
2022-10-26T03:53:46.766Z,99542.41
2022-10-26T03:56:14.453Z,99540.56
2022-10-26T03:58:41.944Z,99540.41
2022-10-26T04:01:09.523Z,99534.03
2022-10-26T04:03:37.259Z,99524.97
2022-10-26T04:06:05.312Z,99523.13
2022-10-26T04:08:32.828Z,99522.97
2022-10-26T04:11:03.703Z,99519.47
2022-10-26T04:13:32.684Z,99515.78
2022-10-26T04:16:00.342Z,99505.91
2022-10-26T04:18:27.904Z,99502.03
2022-10-26T04:20:55.457Z,99488.66
2022-10-26T04:23:23.066Z,99475.94
2022-10-26T04:25:50.586Z,99470.38
2022-10-26T04:28:18.161Z,99465.88
2022-10-26T04:30:47.725Z,99467.19
2022-10-26T04:33:15.217Z,99458.78
2022-10-26T04:35:43.118Z,99459.28
2022-10-26T04:38:10.879Z,99454.22
2022-10-26T04:40:38.374Z,99451.19
2022-10-26T04:43:05.898Z,99454.19
2022-10-26T04:45:33.477Z,99444.13
2022-10-26T04:48:01.849Z,99442.75
2022-10-26T04:50:29.378Z,99438.88
2022-10-26T04:52:57.616Z,99433.16
2022-10-26T04:55:25.244Z,99426.63
2022-10-26T04:57:55.916Z,99423.13
2022-10-26T05:00:26.825Z,99424.97
2022-10-26T05:03:03.161Z,99435.34
2022-10-26T05:05:32.754Z,99421.63
2022-10-26T05:08:00.505Z,99427.44
2022-10-26T05:10:28.507Z,99426.69
2022-10-26T05:12:58.401Z,99420.00
2022-10-26T05:15:27.251Z,99425.00
2022-10-26T05:17:59.429Z,99419.75
2022-10-26T05:20:31.458Z,99421.03
2022-10-26T05:23:01.290Z,99415.13
2022-10-26T05:25:31.036Z,99408.41
2022-10-26T05:27:59.740Z,99413.56
2022-10-26T05:30:28.735Z,99414.03
2022-10-26T05:32:57.835Z,99412.03
2022-10-26T05:35:26.393Z,99416.19
2022-10-26T05:37:54.632Z,99419.69
2022-10-26T05:40:22.596Z,99423.00
2022-10-26T05:42:51.294Z,99421.19
2022-10-26T05:45:19.190Z,99428.88
2022-10-26T05:47:47.286Z,99432.38
2022-10-26T05:50:15.207Z,99422.66
2022-10-26T05:52:47.339Z,99427.03
2022-10-26T05:55:16.891Z,99423.50
2022-10-26T05:57:44.765Z,99400.56
2022-10-26T06:00:21.203Z,99414.97
2022-10-26T06:02:57.557Z,99416.00
2022-10-26T06:05:28.344Z,99411.47
2022-10-26T06:07:56.259Z,99408.97
2022-10-26T06:10:24.157Z,99403.59
2022-10-26T06:12:52.518Z,99401.09
2022-10-26T06:15:21.633Z,99408.78
2022-10-26T06:18:06.984Z,99404.44
2022-10-26T06:20:59.518Z,99395.38
2022-10-26T06:24:02.444Z,99395.19
2022-10-26T06:27:00.699Z,99405.38
2022-10-26T06:29:31.097Z,99408.97
2022-10-26T06:31:58.780Z,99397.50
2022-10-26T06:34:32.637Z,99405.03
2022-10-26T06:37:01.168Z,99406.13
2022-10-26T06:39:31.868Z,99401.88
2022-10-26T06:42:00.390Z,99390.78
2022-10-26T06:44:29.840Z,99390.59
2022-10-26T06:47:07.703Z,99384.00
2022-10-26T06:49:38.397Z,99380.97
2022-10-26T06:52:26.571Z,99378.09
2022-10-26T06:54:55.789Z,99375.22
2022-10-26T06:57:32.592Z,99375.88
2022-10-26T07:00:15.256Z,99378.34
2022-10-26T07:02:43.065Z,99370.97
2022-10-26T07:05:13.037Z,99387.53
2022-10-26T07:07:46.556Z,99378.44
2022-10-26T07:10:15.862Z,99365.97
2022-10-26T07:12:43.481Z,99371.91
2022-10-26T07:15:12.610Z,99436.84
2022-10-26T07:17:48.714Z,99439.81
2022-10-26T07:20:19.350Z,99450.34
2022-10-26T07:22:54.467Z,99452.16
2022-10-26T07:25:23.280Z,99430.94
2022-10-26T07:27:51.669Z,99446.94
2022-10-26T07:30:19.375Z,99454.22
2022-10-26T07:32:47.290Z,99457.63
2022-10-26T07:35:15.198Z,99469.06
2022-10-26T07:37:42.684Z,99468.94
2022-10-26T07:40:10.716Z,99478.53
2022-10-26T07:42:38.341Z,99466.00
2022-10-26T07:45:06.456Z,99475.91
2022-10-26T07:47:34.081Z,99479.66
2022-10-26T07:50:01.698Z,99473.19
2022-10-26T07:52:29.261Z,99459.63
2022-10-26T07:54:56.840Z,99447.78
2022-10-26T07:57:24.365Z,99442.94
2022-10-26T07:59:51.937Z,99445.31
2022-10-26T08:02:19.519Z,99437.16
2022-10-26T08:04:47.321Z,99432.78
2022-10-26T08:07:14.838Z,99451.19
2022-10-26T08:09:42.523Z,99445.19
2022-10-26T08:12:10.062Z,99443.69
2022-10-26T08:14:37.582Z,99439.03
2022-10-26T08:17:05.198Z,99427.50
2022-10-26T08:19:32.728Z,99410.75
2022-10-26T08:22:00.410Z,99421.66
2022-10-26T08:24:27.996Z,99401.44
2022-10-26T08:26:55.557Z,99405.13
2022-10-26T08:29:23.153Z,99408.63
2022-10-26T08:31:50.760Z,99416.47
2022-10-26T08:34:18.377Z,99417.28
2022-10-26T08:36:45.869Z,99412.97
2022-10-26T08:39:13.454Z,99419.63
2022-10-26T08:41:52.864Z,99405.06
2022-10-26T08:44:39.252Z,99414.59
2022-10-26T08:47:46.518Z,99417.94
2022-10-26T08:50:27.921Z,99431.81
2022-10-26T08:53:02.319Z,99424.25
2022-10-26T08:55:45.259Z,99439.16
2022-10-26T08:58:20.663Z,99440.25
2022-10-26T09:00:50.771Z,99444.28
2022-10-26T09:03:19.086Z,99444.91
2022-10-26T09:06:13.367Z,99448.63
2022-10-26T09:08:56.468Z,99460.41
2022-10-26T09:12:01.580Z,99464.06
2022-10-26T09:15:08.662Z,99479.44
2022-10-26T09:18:02.454Z,99464.31
2022-10-26T09:20:39.062Z,99473.00
2022-10-26T09:23:26.370Z,99473.47
2022-10-26T09:25:59.848Z,99483.50
2022-10-26T09:28:31.120Z,99473.88
2022-10-26T09:31:00.988Z,99479.34
2022-10-26T09:33:29.377Z,99490.38
2022-10-26T09:36:13.149Z,99491.31
2022-10-26T09:39:03.641Z,99491.28
2022-10-26T09:41:42.241Z,99517.84
2022-10-26T09:44:31.508Z,99513.91
2022-10-26T09:47:17.932Z,99522.63
2022-10-26T09:49:56.307Z,99526.66
2022-10-26T09:52:23.966Z,99534.66
2022-10-26T09:54:51.478Z,99526.50
2022-10-26T09:57:20.581Z,99519.38
2022-10-26T09:59:50.092Z,99532.47
2022-10-26T10:02:44.026Z,99525.91
2022-10-26T10:08:25.244Z,99534.09
2022-10-26T10:11:11.815Z,99533.41
2022-10-26T10:13:41.660Z,99545.84
2022-10-26T10:16:20.290Z,99544.53
2022-10-26T10:18:59.525Z,99547.53
2022-10-26T10:21:39.181Z,99556.81
2022-10-26T10:24:27.239Z,99545.13
2022-10-26T10:26:59.334Z,99553.41
2022-10-26T10:29:41.772Z,99555.00
2022-10-26T10:32:20.862Z,99554.91
2022-10-26T10:34:51.985Z,99563.50
2022-10-26T10:37:36.944Z,99558.25
2022-10-26T10:40:09.307Z,99566.38
2022-10-26T10:42:41.172Z,99576.41
2022-10-26T10:45:19.754Z,99583.41
2022-10-26T10:48:06.073Z,99595.59
2022-10-26T10:50:34.821Z,99591.41
2022-10-26T10:53:26.757Z,99591.53
2022-10-26T10:56:31.929Z,99594.63
2022-10-26T10:59:17.720Z,99581.88
2022-10-26T11:02:18.044Z,99588.06
2022-10-26T11:05:07.515Z,99591.66
2022-10-26T11:07:46.888Z,99599.53
2022-10-26T11:10:17.831Z,99600.41
2022-10-26T11:12:53.452Z,99603.38
2022-10-26T11:15:24.919Z,99611.44
2022-10-26T11:18:06.726Z,99607.28
2022-10-26T11:20:42.523Z,99615.81
2022-10-26T11:23:20.983Z,99606.34
2022-10-26T11:25:59.681Z,99611.78
2022-10-26T11:28:45.771Z,99613.66
2022-10-26T11:31:21.666Z,99618.25
2022-10-26T11:34:13.807Z,99622.50
2022-10-26T11:36:44.645Z,99630.53
2022-10-26T11:39:23.579Z,99625.81
2022-10-26T11:41:57.245Z,99623.16
2022-10-26T11:44:35.601Z,99622.03
2022-10-26T11:47:28.299Z,99630.22
2022-10-26T11:50:17.197Z,99637.19
2022-10-26T11:52:59.676Z,99642.19
2022-10-26T11:55:28.974Z,99635.31
2022-10-26T11:57:58.260Z,99635.28
2022-10-26T12:00:27.079Z,99649.66
2022-10-26T12:02:54.567Z,99656.38
2022-10-26T12:05:40.414Z,99658.09
2022-10-26T12:08:30.838Z,99662.63
2022-10-26T12:11:32.784Z,99665.44
2022-10-26T12:14:05.525Z,99660.25
2022-10-26T12:17:06.750Z,99685.53
2022-10-26T12:20:01.424Z,99659.34
2022-10-26T12:22:34.716Z,99663.56
2022-10-26T12:25:19.971Z,99686.31
2022-10-26T12:30:34.824Z,99686.09
2022-10-26T12:33:23.595Z,99685.72
2022-10-26T12:35:51.190Z,99700.34
2022-10-26T12:38:21.631Z,99704.16
2022-10-26T12:41:10.890Z,99703.19
2022-10-26T12:43:40.792Z,99700.31
2022-10-26T12:46:14.435Z,99705.41
2022-10-26T12:48:47.348Z,99714.25
2022-10-26T12:51:27.107Z,99709.75
2022-10-26T12:53:57.713Z,99712.09
2022-10-26T12:56:35.803Z,99716.94
2022-10-26T12:59:06.235Z,99726.69
2022-10-26T13:01:42.325Z,99712.31
2022-10-26T13:04:24.230Z,99725.25
2022-10-26T13:07:09.685Z,99744.31
2022-10-26T13:09:37.631Z,99719.78
2022-10-26T13:12:05.743Z,99735.03
2022-10-26T13:14:41.346Z,99733.47
2022-10-26T13:17:24.638Z,99730.94
2022-10-26T13:19:58.209Z,99741.75
2022-10-26T13:22:26.445Z,99739.84
2022-10-26T13:24:59.195Z,99735.63
2022-10-26T13:27:35.750Z,99741.66
2022-10-26T13:30:03.768Z,99763.75
2022-10-26T13:32:55.981Z,99747.78
2022-10-26T13:35:24.857Z,99756.16
2022-10-26T13:37:54.918Z,99768.16
2022-10-26T13:40:27.989Z,99760.06
2022-10-26T13:42:58.236Z,99763.78
2022-10-26T13:45:29.844Z,99765.66
2022-10-26T13:48:11.681Z,99774.81
2022-10-26T13:50:55.623Z,99777.09
2022-10-26T13:53:43.421Z,99780.22
2022-10-26T13:56:43.267Z,99777.13
2022-10-26T13:59:13.657Z,99782.53
2022-10-26T14:01:41.361Z,99785.88
2022-10-26T14:04:26.827Z,99781.88
2022-10-26T14:06:55.357Z,99791.47
2022-10-26T14:09:23.393Z,99777.72
2022-10-26T14:11:59.713Z,99786.66
2022-10-26T14:14:32.218Z,99781.81
2022-10-26T14:17:00.380Z,99791.56
2022-10-26T14:19:45.816Z,99802.78
2022-10-26T14:22:23.691Z,99787.78
2022-10-26T14:24:56.956Z,99804.22
2022-10-26T14:27:33.612Z,99802.56
2022-10-26T14:30:21.487Z,99804.34
2022-10-26T14:32:49.766Z,99812.41
2022-10-26T14:35:21.767Z,99808.84
2022-10-26T14:38:17.323Z,99817.78
2022-10-26T14:40:45.522Z,99813.56
2022-10-26T14:43:18.654Z,99813.38
2022-10-26T14:45:51.896Z,99824.66
2022-10-26T14:48:31.906Z,99834.63
2022-10-26T14:51:00.221Z,99828.34
2022-10-26T14:53:49.354Z,99828.47
2022-10-26T14:56:21.709Z,99838.38
2022-10-26T14:58:49.346Z,99837.72
2022-10-26T15:01:16.934Z,99848.06
2022-10-26T15:03:45.584Z,99842.16
2022-10-26T15:06:28.079Z,99852.84
2022-10-26T15:09:00.215Z,99849.03
2022-10-26T15:11:29.209Z,99844.59
2022-10-26T15:13:57.992Z,99846.03
2022-10-26T15:16:35.077Z,99846.31
2022-10-26T15:19:11.214Z,99850.06
2022-10-26T15:21:45.543Z,99844.13
2022-10-26T15:24:18.950Z,99841.75
2022-10-26T15:26:47.177Z,99841.91
2022-10-26T15:29:40.937Z,99847.13
2022-10-26T15:32:41.143Z,99838.59
2022-10-26T15:35:11.524Z,99847.88
2022-10-26T15:37:39.512Z,99843.03
2022-10-26T15:40:08.190Z,99839.88
2022-10-26T15:42:40.251Z,99854.34
2022-10-26T15:45:26.226Z,99848.06
2022-10-26T15:47:56.750Z,99850.75
2022-10-26T15:50:27.055Z,99856.66
2022-10-26T15:53:02.947Z,99867.16
2022-10-26T15:55:31.168Z,99867.69
2022-10-26T15:57:58.704Z,99868.28
2022-10-26T16:00:26.240Z,99882.88
2022-10-26T16:02:53.868Z,99872.84
2022-10-26T16:05:21.445Z,99880.00
2022-10-26T16:07:50.664Z,99880.72
2022-10-26T16:10:25.672Z,99886.81
2022-10-26T16:12:53.714Z,99894.25
2022-10-26T16:15:24.493Z,99906.00
2022-10-26T16:17:53.070Z,99900.16
2022-10-26T16:20:23.837Z,99907.28
2022-10-26T16:22:52.867Z,99903.09
2022-10-26T16:25:23.676Z,99926.81
2022-10-26T16:27:52.264Z,99910.19
2022-10-26T16:30:20.849Z,99922.13
2022-10-26T16:32:48.762Z,99920.47
2022-10-26T16:35:16.600Z,99922.13
2022-10-26T16:37:45.679Z,99927.03
2022-10-26T16:40:13.610Z,99933.44
2022-10-26T16:42:45.252Z,99944.34
2022-10-26T16:45:14.751Z,99949.94
2022-10-26T16:47:42.409Z,99952.97
2022-10-26T16:50:12.035Z,99955.84
2022-10-26T16:52:40.052Z,99971.09
2022-10-26T16:55:08.970Z,99975.66
2022-10-26T16:57:37.459Z,99987.59
2022-10-26T17:00:06.722Z,99983.22
2022-10-26T17:02:34.422Z,99991.00
2022-10-26T17:05:05.892Z,99999.56
2022-10-26T17:07:35.688Z,100001.63
2022-10-26T17:10:03.869Z,100009.16
2022-10-26T17:12:31.715Z,100016.75
2022-10-26T17:15:00.710Z,100013.22
2022-10-26T17:17:28.507Z,100022.47
2022-10-26T17:22:58.279Z,100034.56
2022-10-26T17:25:25.863Z,100042.16
2022-10-26T17:27:53.452Z,100063.97
2022-10-26T17:30:21.070Z,100072.56
2022-10-26T17:32:49.063Z,100077.78
2022-10-26T17:35:17.191Z,100084.31
2022-10-26T17:37:45.047Z,100073.59
2022-10-26T17:40:12.721Z,100084.44
2022-10-26T17:42:40.485Z,100088.50
2022-10-26T17:45:09.886Z,100109.31
2022-10-26T17:47:37.449Z,100110.31
2022-10-26T17:50:05.514Z,100098.94
2022-10-26T17:52:33.535Z,100105.13
2022-10-26T17:55:02.643Z,100122.91
2022-10-26T17:57:32.245Z,100127.25
2022-10-26T17:59:59.958Z,100140.53
2022-10-26T18:02:27.619Z,100147.56
2022-10-26T18:04:55.232Z,100160.34
2022-10-26T18:07:22.779Z,100158.00
2022-10-26T18:09:50.326Z,100172.25
2022-10-26T18:12:17.806Z,100179.47
2022-10-26T18:14:45.346Z,100180.47
2022-10-26T18:17:12.898Z,100181.47
2022-10-26T18:19:40.465Z,100196.91
2022-10-26T18:22:08.018Z,100199.09
2022-10-26T18:24:35.546Z,100215.38
2022-10-26T18:27:03.050Z,100207.47
2022-10-26T18:29:30.574Z,100216.53
2022-10-26T18:31:58.039Z,100223.41
2022-10-26T18:34:25.556Z,100231.97
2022-10-26T18:36:53.889Z,100220.72
2022-10-26T18:39:21.416Z,100219.22
2022-10-26T18:41:48.904Z,100226.75
2022-10-26T18:44:19.065Z,100225.91
2022-10-26T18:46:51.903Z,100236.16
2022-10-26T18:49:20.997Z,100247.84
2022-10-26T18:51:48.737Z,100247.84
2022-10-26T18:54:16.274Z,100243.00
2022-10-26T18:56:43.789Z,100239.47
2022-10-26T18:59:11.395Z,100239.81
2022-10-26T19:01:42.102Z,100245.50
2022-10-26T19:04:11.275Z,100256.38
2022-10-26T19:06:47.680Z,100262.06
2022-10-26T19:09:16.432Z,100270.81
2022-10-26T19:11:44.387Z,100281.03
2022-10-26T19:14:12.505Z,100270.94
2022-10-26T19:16:45.752Z,100269.06
2022-10-26T19:19:15.259Z,100277.56
2022-10-26T19:21:43.190Z,100280.56
2022-10-26T19:24:19.506Z,100276.22
2022-10-26T19:26:48.539Z,100268.19
2022-10-26T19:29:17.201Z,100280.25
2022-10-26T19:31:46.085Z,100277.19
2022-10-26T19:34:15.485Z,100295.28
2022-10-26T19:36:47.173Z,100296.78
2022-10-26T19:39:18.158Z,100287.59
2022-10-26T19:41:46.414Z,100295.31
2022-10-26T19:44:15.233Z,100303.88
2022-10-26T19:46:43.787Z,100304.41
2022-10-26T19:49:12.875Z,100293.53
2022-10-26T19:51:40.770Z,100281.09
2022-10-26T19:54:09.198Z,100288.09
2022-10-26T19:56:37.418Z,100295.28
2022-10-26T19:59:05.498Z,100307.47
2022-10-26T20:01:33.203Z,100308.94
2022-10-26T20:04:02.661Z,100314.50
2022-10-26T20:06:31.097Z,100322.53
2022-10-26T20:08:59.942Z,100339.44
2022-10-26T20:11:28.022Z,100351.72
2022-10-26T20:13:56.542Z,100351.75
2022-10-26T20:16:25.180Z,100360.31
2022-10-26T20:18:52.712Z,100361.00
2022-10-26T20:21:20.565Z,100359.84
2022-10-26T20:23:48.112Z,100374.09
2022-10-26T20:26:19.457Z,100378.94
2022-10-26T20:28:51.054Z,100374.72
2022-10-26T20:31:19.496Z,100387.44
2022-10-26T20:33:50.770Z,100381.72
2022-10-26T20:36:18.463Z,100394.59
2022-10-26T20:38:46.541Z,100397.72
2022-10-26T20:41:14.675Z,100416.50
2022-10-26T20:43:42.592Z,100424.53
2022-10-26T20:46:28.410Z,100427.41
2022-10-26T20:48:56.292Z,100430.22
2022-10-26T20:52:08.614Z,100441.25
2022-10-26T20:54:47.637Z,100443.41
2022-10-26T20:57:19.974Z,100452.44
2022-10-26T20:59:51.847Z,100456.41
2022-10-26T21:02:21.145Z,100476.97
2022-10-26T21:04:48.737Z,100480.97
2022-10-26T21:07:16.192Z,100482.97
2022-10-26T21:09:43.714Z,100476.06
2022-10-26T21:12:11.796Z,100487.63
2022-10-26T21:14:41.032Z,100486.94
2022-10-26T21:17:09.167Z,100500.50
2022-10-26T21:19:36.924Z,100510.22
2022-10-26T21:22:04.477Z,100509.19
2022-10-26T21:24:32.371Z,100511.03
2022-10-26T21:26:59.923Z,100513.06
2022-10-26T21:29:27.511Z,100515.88
2022-10-26T21:31:55.103Z,100518.25
2022-10-26T21:34:22.578Z,100517.53
2022-10-26T21:36:50.199Z,100518.84
2022-10-26T21:39:17.781Z,100534.78
2022-10-26T21:41:45.304Z,100525.03
2022-10-26T21:44:24.530Z,100524.22
2022-10-26T21:47:00.355Z,100526.66
2022-10-26T21:49:27.880Z,100542.34
2022-10-26T21:51:55.415Z,100542.78
2022-10-26T21:54:22.965Z,100548.28
2022-10-26T21:56:50.500Z,100549.56
2022-10-26T21:59:18.014Z,100542.00
2022-10-26T22:01:45.756Z,100546.09
2022-10-26T22:04:13.341Z,100547.09
2022-10-26T22:06:41.476Z,100554.59
2022-10-26T22:09:09.196Z,100561.06
2022-10-26T22:11:36.811Z,100576.75
2022-10-26T22:14:04.357Z,100573.66
2022-10-26T22:16:32.964Z,100576.78
2022-10-26T22:19:06.216Z,100568.34
2022-10-26T22:21:39.855Z,100570.59
2022-10-26T22:24:08.167Z,100573.56
2022-10-26T22:26:37.429Z,100579.06
2022-10-26T22:29:05.481Z,100578.81
2022-10-26T22:31:35.201Z,100578.38
2022-10-26T22:34:08.126Z,100572.75
2022-10-26T22:36:35.976Z,100581.63
2022-10-26T22:39:04.204Z,100593.78
2022-10-26T22:41:31.833Z,100592.66
2022-10-26T22:43:59.323Z,100588.44
2022-10-26T22:46:28.062Z,100589.00
2022-10-26T22:48:58.022Z,100600.06
2022-10-26T22:51:27.607Z,100601.50
2022-10-26T22:53:57.634Z,100595.59
2022-10-26T22:58:59.688Z,100604.84
2022-10-26T23:01:31.363Z,100621.88
2022-10-26T23:04:00.751Z,100611.91
2022-10-26T23:06:30.349Z,100612.59
2022-10-26T23:08:58.693Z,100613.31
2022-10-26T23:11:28.496Z,100621.47
2022-10-26T23:13:58.248Z,100618.22
2022-10-26T23:16:26.483Z,100622.19
2022-10-26T23:18:54.515Z,100625.56
2022-10-26T23:21:24.187Z,100632.59
2022-10-26T23:23:51.870Z,100642.28
2022-10-26T23:26:21.504Z,100642.28
2022-10-26T23:28:49.879Z,100651.88
2022-10-26T23:31:22.353Z,100661.34
2022-10-26T23:33:51.402Z,100662.91
2022-10-26T23:36:19.375Z,100664.03
2022-10-26T23:38:47.897Z,100658.00
2022-10-26T23:41:15.549Z,100661.78
2022-10-26T23:43:43.062Z,100660.22
2022-10-26T23:46:10.613Z,100664.28
2022-10-26T23:48:38.381Z,100671.63
2022-10-26T23:51:05.985Z,100660.34
2022-10-26T23:53:33.599Z,100665.13
2022-10-26T23:56:01.064Z,100667.38
2022-10-26T23:58:28.607Z,100667.94
